Back to Top

Language: 

My Weather Underground Personal Weather Station Historical Data with Graphs...

Delerius Weather Station Historical Data
Daily Summary for March 20, 2017 Units:  Both    English   Metric
« Previous Day
Next Day »
Daily Weekly Monthly Yearly Custom
  High: Low: Average:
Temperature: 51.6 °F /  10.9 °C 39.9 °F /  4.4 °C 48.4 °F /  9.1 °C
Dew Point: 49.1 °F /  9.5 °C 35.1 °F /  1.7 °C 42.7 °F /  5.9 °C
Humidity: 94 % 57 % 81 %
Wind Speed: 18.0 mph /  29 km/h - 9.9 mph /  15.9 km/h
Wind Gust: 32.0 mph /  51.5 km/h - -
Wind:- - WSW
Pressure: 29.60 in /  1002.3 hPa 29.45 in /  997.2 hPa -
Precipitation: 0.06 in /  1.52 mm    
Historical Graphs
 
 
Tabular Data for March 20, 2017
Time Temperature Dew Point Pressure Wind Wind Speed Wind Gust Humidity Rainfall Rate (Hourly) solar Conditions
00:04 50.4 °F /  10.2 °C 48.7 °F /  9.3 °C 29.60 in /  1002.3 hPa SE 2.0 mph /  3.2 km/h 5.0 mph /  8 km/h 94 % 0.00 in /  0 mm 0 W/m2
00:09 50.4 °F /  10.2 °C 48.7 °F /  9.3 °C 29.59 in /  1001.9 hPa SE 2.0 mph /  3.2 km/h 6.0 mph /  9.7 km/h 94 % 0.00 in /  0 mm 0 W/m2
00:14 50.4 °F /  10.2 °C 48.7 °F /  9.3 °C 29.59 in /  1001.9 hPa SE 3.0 mph /  4.8 km/h 7.0 mph /  11.3 km/h 94 % 0.00 in /  0 mm 0 W/m2
00:19 50.4 °F /  10.2 °C 48.7 °F /  9.3 °C 29.59 in /  1001.9 hPa SSE 4.0 mph /  6.4 km/h 7.0 mph /  11.3 km/h 94 % 0.00 in /  0 mm 0 W/m2
00:24 50.4 °F /  10.2 °C 48.7 °F /  9.3 °C 29.59 in /  1001.9 hPa SSE 3.0 mph /  4.8 km/h 7.0 mph /  11.3 km/h 94 % 0.00 in /  0 mm 0 W/m2
00:29 50.4 °F /  10.2 °C 48.7 °F /  9.3 °C 29.59 in /  1001.9 hPa SSE 3.0 mph /  4.8 km/h 6.0 mph /  9.7 km/h 94 % 0.00 in /  0 mm 0 W/m2
00:34 50.4 °F /  10.2 °C 48.7 °F /  9.3 °C 29.59 in /  1001.9 hPa SSE 3.0 mph /  4.8 km/h 6.0 mph /  9.7 km/h 94 % 0.00 in /  0 mm 0 W/m2
00:39 50.4 °F /  10.2 °C 48.7 °F /  9.3 °C 29.59 in /  1001.9 hPa SSE 2.0 mph /  3.2 km/h 5.0 mph /  8 km/h 94 % 0.00 in /  0 mm 0 W/m2
00:44 50.4 °F /  10.2 °C 48.7 °F /  9.3 °C 29.59 in /  1001.9 hPa SSE 1.0 mph /  1.6 km/h 5.0 mph /  8 km/h 94 % 0.00 in /  0 mm 0 W/m2
00:50 50.4 °F /  10.2 °C 48.7 °F /  9.3 °C 29.58 in /  1001.6 hPa SSE 2.0 mph /  3.2 km/h 5.0 mph /  8 km/h 94 % 0.00 in /  0 mm 0 W/m2
00:55 50.4 °F /  10.2 °C 48.7 °F /  9.3 °C 29.58 in /  1001.6 hPa South 2.0 mph /  3.2 km/h 7.0 mph /  11.3 km/h 94 % 0.00 in /  0 mm 0 W/m2
01:00 50.4 °F /  10.2 °C 48.7 °F /  9.3 °C 29.58 in /  1001.6 hPa SSW 3.0 mph /  4.8 km/h 8.0 mph /  12.9 km/h 94 % 0.00 in /  0 mm 0 W/m2
01:05 50.5 °F /  10.3 °C 48.9 °F /  9.4 °C 29.58 in /  1001.6 hPa SSW 3.0 mph /  4.8 km/h 8.0 mph /  12.9 km/h 94 % 0.00 in /  0 mm 0 W/m2
01:10 50.5 °F /  10.3 °C 48.9 °F /  9.4 °C 29.58 in /  1001.6 hPa SW 4.0 mph /  6.4 km/h 12.0 mph /  19.3 km/h 94 % 0.00 in /  0 mm 0 W/m2
01:15 50.7 °F /  10.4 °C 48.8 °F /  9.3 °C 29.57 in /  1001.2 hPa SW 6.0 mph /  9.7 km/h 13.0 mph /  20.9 km/h 93 % 0.00 in /  0 mm 0 W/m2
01:20 51.1 °F /  10.6 °C 49.1 °F /  9.5 °C 29.57 in /  1001.2 hPa SW 7.0 mph /  11.3 km/h 13.0 mph /  20.9 km/h 93 % 0.00 in /  0 mm 0 W/m2
01:25 51.1 °F /  10.6 °C 48.8 °F /  9.3 °C 29.56 in /  1000.9 hPa SW 7.0 mph /  11.3 km/h 12.0 mph /  19.3 km/h 92 % 0.00 in /  0 mm 0 W/m2
01:30 51.3 °F /  10.7 °C 49.0 °F /  9.4 °C 29.56 in /  1000.9 hPa SW 7.0 mph /  11.3 km/h 11.0 mph /  17.7 km/h 92 % 0.00 in /  0 mm 0 W/m2
01:31 51.3 °F /  10.7 °C 49.0 °F /  9.4 °C 29.57 in /  1001.2 hPa SW 7.0 mph /  11.3 km/h 11.0 mph /  17.7 km/h 92 % 0.00 in /  0 mm 0 W/m2
01:36 51.3 °F /  10.7 °C 49.0 °F /  9.4 °C 29.56 in /  1000.9 hPa WSW 6.0 mph /  9.7 km/h 12.0 mph /  19.3 km/h 92 % 0.00 in /  0 mm 0 W/m2
01:41 51.3 °F /  10.7 °C 48.7 °F /  9.3 °C 29.56 in /  1000.9 hPa WSW 6.0 mph /  9.7 km/h 12.0 mph /  19.3 km/h 91 % 0.00 in /  0 mm 0 W/m2
01:46 51.3 °F /  10.7 °C 48.7 °F /  9.3 °C 29.56 in /  1000.9 hPa WSW 6.0 mph /  9.7 km/h 12.0 mph /  19.3 km/h 91 % 0.00 in /  0 mm 0 W/m2
01:51 51.4 °F /  10.8 °C 48.9 °F /  9.4 °C 29.56 in /  1000.9 hPa SW 7.0 mph /  11.3 km/h 13.0 mph /  20.9 km/h 91 % 0.00 in /  0 mm 0 W/m2
01:56 51.4 °F /  10.8 °C 48.9 °F /  9.4 °C 29.55 in /  1000.6 hPa SW 7.0 mph /  11.3 km/h 13.0 mph /  20.9 km/h 91 % 0.00 in /  0 mm 0 W/m2
02:01 51.4 °F /  10.8 °C 48.9 °F /  9.4 °C 29.55 in /  1000.6 hPa SW 8.0 mph /  12.9 km/h 15.0 mph /  24.1 km/h 91 % 0.00 in /  0 mm 0 W/m2
02:06 51.4 °F /  10.8 °C 48.9 °F /  9.4 °C 29.55 in /  1000.6 hPa SW 8.0 mph /  12.9 km/h 16.0 mph /  25.7 km/h 91 % 0.00 in /  0 mm 0 W/m2
02:11 51.4 °F /  10.8 °C 48.9 °F /  9.4 °C 29.55 in /  1000.6 hPa SW 7.0 mph /  11.3 km/h 16.0 mph /  25.7 km/h 91 % 0.00 in /  0 mm 0 W/m2
02:16 51.4 °F /  10.8 °C 48.9 °F /  9.4 °C 29.55 in /  1000.6 hPa SW 7.0 mph /  11.3 km/h 16.0 mph /  25.7 km/h 91 % 0.00 in /  0 mm 0 W/m2
02:21 51.4 °F /  10.8 °C 48.6 °F /  9.2 °C 29.55 in /  1000.6 hPa SW 8.0 mph /  12.9 km/h 13.0 mph /  20.9 km/h 90 % 0.00 in /  0 mm 0 W/m2
02:26 51.4 °F /  10.8 °C 48.6 °F /  9.2 °C 29.55 in /  1000.6 hPa SW 8.0 mph /  12.9 km/h 13.0 mph /  20.9 km/h 90 % 0.00 in /  0 mm 0 W/m2
02:31 51.4 °F /  10.8 °C 48.6 °F /  9.2 °C 29.55 in /  1000.6 hPa WSW 7.0 mph /  11.3 km/h 14.0 mph /  22.5 km/h 90 % 0.00 in /  0 mm 0 W/m2
02:36 51.4 °F /  10.8 °C 48.6 °F /  9.2 °C 29.54 in /  1000.2 hPa WSW 8.0 mph /  12.9 km/h 14.0 mph /  22.5 km/h 90 % 0.00 in /  0 mm 0 W/m2
02:41 51.6 °F /  10.9 °C 48.5 °F /  9.2 °C 29.54 in /  1000.2 hPa WSW 9.0 mph /  14.5 km/h 15.0 mph /  24.1 km/h 89 % 0.00 in /  0 mm 0 W/m2
02:46 51.6 °F /  10.9 °C 48.5 °F /  9.2 °C 29.54 in /  1000.2 hPa SW 8.0 mph /  12.9 km/h 15.0 mph /  24.1 km/h 89 % 0.00 in /  0 mm 0 W/m2
02:51 51.6 °F /  10.9 °C 48.5 °F /  9.2 °C 29.54 in /  1000.2 hPa SW 8.0 mph /  12.9 km/h 15.0 mph /  24.1 km/h 89 % 0.00 in /  0 mm 0 W/m2
02:56 51.6 °F /  10.9 °C 48.8 °F /  9.3 °C 29.54 in /  1000.2 hPa SW 8.0 mph /  12.9 km/h 14.0 mph /  22.5 km/h 90 % 0.00 in /  0 mm 0 W/m2
03:01 51.4 °F /  10.8 °C 48.6 °F /  9.2 °C 29.54 in /  1000.2 hPa SW 9.0 mph /  14.5 km/h 14.0 mph /  22.5 km/h 90 % 0.01 in /  0.25 mm 0 W/m2
03:06 51.3 °F /  10.7 °C 48.7 °F /  9.3 °C 29.53 in /  999.9 hPa SW 8.0 mph /  12.9 km/h 15.0 mph /  24.1 km/h 91 % 0.01 in /  0.25 mm 0 W/m2
03:11 51.3 °F /  10.7 °C 48.7 °F /  9.3 °C 29.53 in /  999.9 hPa SW 7.0 mph /  11.3 km/h 15.0 mph /  24.1 km/h 91 % 0.01 in /  0.25 mm 0 W/m2
03:16 51.1 °F /  10.6 °C 48.5 °F /  9.2 °C 29.53 in /  999.9 hPa WSW 5.0 mph /  8 km/h 9.0 mph /  14.5 km/h 91 % 0.01 in /  0.25 mm 0 W/m2
03:21 50.9 °F /  10.5 °C 48.4 °F /  9.1 °C 29.52 in /  999.5 hPa WSW 5.0 mph /  8 km/h 10.0 mph /  16.1 km/h 91 % 0.01 in /  0.25 mm 0 W/m2
03:26 50.9 °F /  10.5 °C 48.4 °F /  9.1 °C 29.53 in /  999.9 hPa SW 5.0 mph /  8 km/h 10.0 mph /  16.1 km/h 91 % 0.01 in /  0.25 mm 0 W/m2
03:31 50.7 °F /  10.4 °C 48.2 °F /  9 °C 29.53 in /  999.9 hPa WSW 6.0 mph /  9.7 km/h 13.0 mph /  20.9 km/h 91 % 0.01 in /  0.25 mm 0 W/m2
03:36 50.9 °F /  10.5 °C 48.4 °F /  9.1 °C 29.53 in /  999.9 hPa WSW 8.0 mph /  12.9 km/h 14.0 mph /  22.5 km/h 91 % 0.01 in /  0.25 mm 0 W/m2
03:41 51.1 °F /  10.6 °C 48.2 °F /  9 °C 29.52 in /  999.5 hPa WSW 8.0 mph /  12.9 km/h 14.0 mph /  22.5 km/h 90 % 0.01 in /  0.25 mm 0 W/m2
03:46 51.3 °F /  10.7 °C 48.1 °F /  8.9 °C 29.52 in /  999.5 hPa WSW 8.0 mph /  12.9 km/h 14.0 mph /  22.5 km/h 89 % 0.01 in /  0.25 mm 0 W/m2
03:51 51.3 °F /  10.7 °C 48.1 °F /  8.9 °C 29.52 in /  999.5 hPa WSW 9.0 mph /  14.5 km/h 14.0 mph /  22.5 km/h 89 % 0.01 in /  0.25 mm 0 W/m2
03:56 51.4 °F /  10.8 °C 48.3 °F /  9.1 °C 29.52 in /  999.5 hPa SW 6.0 mph /  9.7 km/h 12.0 mph /  19.3 km/h 89 % 0.01 in /  0.25 mm 0 W/m2
04:01 51.3 °F /  10.7 °C 48.1 °F /  8.9 °C 29.52 in /  999.5 hPa SW 6.0 mph /  9.7 km/h 10.0 mph /  16.1 km/h 89 % 0.00 in /  0 mm 0 W/m2
04:06 51.3 °F /  10.7 °C 48.1 °F /  8.9 °C 29.52 in /  999.5 hPa SW 7.0 mph /  11.3 km/h 11.0 mph /  17.7 km/h 89 % 0.00 in /  0 mm 0 W/m2
04:11 51.3 °F /  10.7 °C 48.1 °F /  8.9 °C 29.51 in /  999.2 hPa SW 7.0 mph /  11.3 km/h 11.0 mph /  17.7 km/h 89 % 0.00 in /  0 mm 0 W/m2
04:17 51.3 °F /  10.7 °C 48.1 °F /  8.9 °C 29.51 in /  999.2 hPa SW 7.0 mph /  11.3 km/h 11.0 mph /  17.7 km/h 89 % 0.00 in /  0 mm 0 W/m2
04:22 51.1 °F /  10.6 °C 48.0 °F /  8.9 °C 29.51 in /  999.2 hPa SW 7.0 mph /  11.3 km/h 11.0 mph /  17.7 km/h 89 % 0.00 in /  0 mm 0 W/m2
04:27 51.1 °F /  10.6 °C 48.0 °F /  8.9 °C 29.51 in /  999.2 hPa SW 8.0 mph /  12.9 km/h 13.0 mph /  20.9 km/h 89 % 0.00 in /  0 mm 0 W/m2
04:32 51.1 °F /  10.6 °C 48.0 °F /  8.9 °C 29.51 in /  999.2 hPa SW 9.0 mph /  14.5 km/h 13.0 mph /  20.9 km/h 89 % 0.00 in /  0 mm 0 W/m2
04:37 51.3 °F /  10.7 °C 47.8 °F /  8.8 °C 29.51 in /  999.2 hPa SW 10.0 mph /  16.1 km/h 18.0 mph /  29 km/h 88 % 0.00 in /  0 mm 0 W/m2
04:42 51.4 °F /  10.8 °C 48.0 °F /  8.9 °C 29.51 in /  999.2 hPa SW 12.0 mph /  19.3 km/h 21.0 mph /  33.8 km/h 88 % 0.00 in /  0 mm 0 W/m2
04:47 51.4 °F /  10.8 °C 48.0 °F /  8.9 °C 29.51 in /  999.2 hPa SW 12.0 mph /  19.3 km/h 21.0 mph /  33.8 km/h 88 % 0.00 in /  0 mm 0 W/m2
04:52 51.4 °F /  10.8 °C 48.0 °F /  8.9 °C 29.51 in /  999.2 hPa SW 11.0 mph /  17.7 km/h 19.0 mph /  30.6 km/h 88 % 0.00 in /  0 mm 0 W/m2
04:57 51.4 °F /  10.8 °C 48.0 °F /  8.9 °C 29.50 in /  998.9 hPa SW 11.0 mph /  17.7 km/h 18.0 mph /  29 km/h 88 % 0.00 in /  0 mm 0 W/m2
05:02 51.4 °F /  10.8 °C 48.0 °F /  8.9 °C 29.50 in /  998.9 hPa SW 10.0 mph /  16.1 km/h 18.0 mph /  29 km/h 88 % 0.00 in /  0 mm 0 W/m2
05:07 51.4 °F /  10.8 °C 48.0 °F /  8.9 °C 29.50 in /  998.9 hPa SW 10.0 mph /  16.1 km/h 16.0 mph /  25.7 km/h 88 % 0.00 in /  0 mm 0 W/m2
05:12 51.4 °F /  10.8 °C 47.7 °F /  8.7 °C 29.50 in /  998.9 hPa SW 11.0 mph /  17.7 km/h 19.0 mph /  30.6 km/h 87 % 0.00 in /  0 mm 0 W/m2
05:22 51.6 °F /  10.9 °C 47.9 °F /  8.8 °C 29.50 in /  998.9 hPa SW 11.0 mph /  17.7 km/h 19.0 mph /  30.6 km/h 87 % 0.00 in /  0 mm 0 W/m2
05:27 51.6 °F /  10.9 °C 47.9 °F /  8.8 °C 29.50 in /  998.9 hPa SW 11.0 mph /  17.7 km/h 19.0 mph /  30.6 km/h 87 % 0.00 in /  0 mm 0 W/m2
05:32 51.4 °F /  10.8 °C 47.7 °F /  8.7 °C 29.49 in /  998.5 hPa SW 9.0 mph /  14.5 km/h 16.0 mph /  25.7 km/h 87 % 0.00 in /  0 mm 0 W/m2
05:37 51.4 °F /  10.8 °C 47.7 °F /  8.7 °C 29.49 in /  998.5 hPa SW 10.0 mph /  16.1 km/h 21.0 mph /  33.8 km/h 87 % 0.00 in /  0 mm 0 W/m2
05:42 51.3 °F /  10.7 °C 47.2 °F /  8.4 °C 29.49 in /  998.5 hPa SW 10.0 mph /  16.1 km/h 21.0 mph /  33.8 km/h 86 % 0.00 in /  0 mm 0 W/m2
05:47 51.3 °F /  10.7 °C 47.2 °F /  8.4 °C 29.50 in /  998.9 hPa SW 11.0 mph /  17.7 km/h 20.0 mph /  32.2 km/h 86 % 0.00 in /  0 mm 0 W/m2
05:52 51.3 °F /  10.7 °C 47.2 °F /  8.4 °C 29.49 in /  998.5 hPa SW 12.0 mph /  19.3 km/h 20.0 mph /  32.2 km/h 86 % 0.00 in /  0 mm 0 W/m2
05:57 51.4 °F /  10.8 °C 47.1 °F /  8.4 °C 29.50 in /  998.9 hPa SW 11.0 mph /  17.7 km/h 19.0 mph /  30.6 km/h 85 % 0.00 in /  0 mm 0 W/m2
06:02 51.4 °F /  10.8 °C 47.1 °F /  8.4 °C 29.49 in /  998.5 hPa SW 11.0 mph /  17.7 km/h 18.0 mph /  29 km/h 85 % 0.00 in /  0 mm 0 W/m2
06:07 51.4 °F /  10.8 °C 47.1 °F /  8.4 °C 29.49 in /  998.5 hPa SW 12.0 mph /  19.3 km/h 21.0 mph /  33.8 km/h 85 % 0.00 in /  0 mm 0 W/m2
06:12 51.3 °F /  10.7 °C 46.9 °F /  8.3 °C 29.49 in /  998.5 hPa SW 12.0 mph /  19.3 km/h 21.0 mph /  33.8 km/h 85 % 0.00 in /  0 mm 0 W/m2
06:17 51.3 °F /  10.7 °C 46.9 °F /  8.3 °C 29.48 in /  998.2 hPa SW 11.0 mph /  17.7 km/h 21.0 mph /  33.8 km/h 85 % 0.00 in /  0 mm 5 W/m2
06:22 51.3 °F /  10.7 °C 46.9 °F /  8.3 °C 29.48 in /  998.2 hPa SW 12.0 mph /  19.3 km/h 21.0 mph /  33.8 km/h 85 % 0.00 in /  0 mm 11 W/m2
06:27 51.3 °F /  10.7 °C 46.9 °F /  8.3 °C 29.48 in /  998.2 hPa SW 13.0 mph /  20.9 km/h 21.0 mph /  33.8 km/h 85 % 0.00 in /  0 mm 12 W/m2
06:32 51.1 °F /  10.6 °C 46.7 °F /  8.2 °C 29.48 in /  998.2 hPa SW 12.0 mph /  19.3 km/h 19.0 mph /  30.6 km/h 85 % 0.00 in /  0 mm 19 W/m2
06:37 51.1 °F /  10.6 °C 46.7 °F /  8.2 °C 29.48 in /  998.2 hPa SW 11.0 mph /  17.7 km/h 19.0 mph /  30.6 km/h 85 % 0.00 in /  0 mm 32 W/m2
06:42 51.1 °F /  10.6 °C 46.7 °F /  8.2 °C 29.48 in /  998.2 hPa SW 11.0 mph /  17.7 km/h 21.0 mph /  33.8 km/h 85 % 0.00 in /  0 mm 37 W/m2
06:44 51.1 °F /  10.6 °C 46.4 °F /  8 °C 29.48 in /  998.2 hPa SW 11.0 mph /  17.7 km/h 21.0 mph /  33.8 km/h 84 % 0.00 in /  0 mm 35 W/m2
06:49 51.1 °F /  10.6 °C 46.4 °F /  8 °C 29.48 in /  998.2 hPa SW 13.0 mph /  20.9 km/h 22.0 mph /  35.4 km/h 84 % 0.00 in /  0 mm 21 W/m2
06:54 51.1 °F /  10.6 °C 46.4 °F /  8 °C 29.48 in /  998.2 hPa SW 14.0 mph /  22.5 km/h 23.0 mph /  37 km/h 84 % 0.00 in /  0 mm 26 W/m2
06:59 51.1 °F /  10.6 °C 46.4 °F /  8 °C 29.48 in /  998.2 hPa SW 14.0 mph /  22.5 km/h 24.0 mph /  38.6 km/h 84 % 0.00 in /  0 mm 28 W/m2
07:04 51.1 °F /  10.6 °C 46.4 °F /  8 °C 29.48 in /  998.2 hPa SW 14.0 mph /  22.5 km/h 24.0 mph /  38.6 km/h 84 % 0.00 in /  0 mm 35 W/m2
07:09 50.9 °F /  10.5 °C 46.2 °F /  7.9 °C 29.48 in /  998.2 hPa SW 12.0 mph /  19.3 km/h 21.0 mph /  33.8 km/h 84 % 0.00 in /  0 mm 28 W/m2
07:14 50.7 °F /  10.4 °C 45.7 °F /  7.6 °C 29.47 in /  997.9 hPa SW 13.0 mph /  20.9 km/h 20.0 mph /  32.2 km/h 83 % 0.00 in /  0 mm 28 W/m2
07:19 50.5 °F /  10.3 °C 44.9 °F /  7.2 °C 29.48 in /  998.2 hPa WSW 13.0 mph /  20.9 km/h 21.0 mph /  33.8 km/h 81 % 0.00 in /  0 mm 25 W/m2
07:24 50.4 °F /  10.2 °C 44.7 °F /  7.1 °C 29.48 in /  998.2 hPa WSW 12.0 mph /  19.3 km/h 21.0 mph /  33.8 km/h 81 % 0.00 in /  0 mm 33 W/m2
07:29 50.2 °F /  10.1 °C 44.6 °F /  7 °C 29.48 in /  998.2 hPa WSW 11.0 mph /  17.7 km/h 22.0 mph /  35.4 km/h 81 % 0.00 in /  0 mm 49 W/m2
07:34 50.2 °F /  10.1 °C 44.6 °F /  7 °C 29.48 in /  998.2 hPa WSW 11.0 mph /  17.7 km/h 22.0 mph /  35.4 km/h 81 % 0.00 in /  0 mm 25 W/m2
07:39 50.0 °F /  10 °C 44.1 °F /  6.7 °C 29.48 in /  998.2 hPa WSW 10.0 mph /  16.1 km/h 20.0 mph /  32.2 km/h 80 % 0.00 in /  0 mm 33 W/m2
07:44 50.0 °F /  10 °C 44.1 °F /  6.7 °C 29.48 in /  998.2 hPa WSW 9.0 mph /  14.5 km/h 19.0 mph /  30.6 km/h 80 % 0.00 in /  0 mm 40 W/m2
07:49 50.0 °F /  10 °C 44.1 °F /  6.7 °C 29.48 in /  998.2 hPa WSW 9.0 mph /  14.5 km/h 15.0 mph /  24.1 km/h 80 % 0.00 in /  0 mm 49 W/m2
07:54 49.8 °F /  9.9 °C 44.2 °F /  6.8 °C 29.48 in /  998.2 hPa WSW 9.0 mph /  14.5 km/h 15.0 mph /  24.1 km/h 81 % 0.00 in /  0 mm 47 W/m2
07:59 49.8 °F /  9.9 °C 44.2 °F /  6.8 °C 29.47 in /  997.9 hPa WSW 8.0 mph /  12.9 km/h 14.0 mph /  22.5 km/h 81 % 0.00 in /  0 mm 74 W/m2
08:04 49.8 °F /  9.9 °C 43.9 °F /  6.6 °C 29.47 in /  997.9 hPa WSW 10.0 mph /  16.1 km/h 18.0 mph /  29 km/h 80 % 0.00 in /  0 mm 49 W/m2
08:09 49.8 °F /  9.9 °C 43.9 °F /  6.6 °C 29.46 in /  997.5 hPa WSW 10.0 mph /  16.1 km/h 18.0 mph /  29 km/h 80 % 0.00 in /  0 mm 62 W/m2
08:14 49.8 °F /  9.9 °C 44.2 °F /  6.8 °C 29.47 in /  997.9 hPa WSW 10.0 mph /  16.1 km/h 15.0 mph /  24.1 km/h 81 % 0.00 in /  0 mm 65 W/m2
08:20 49.8 °F /  9.9 °C 44.5 °F /  6.9 °C 29.47 in /  997.9 hPa WSW 10.0 mph /  16.1 km/h 15.0 mph /  24.1 km/h 82 % 0.00 in /  0 mm 83 W/m2
08:25 49.8 °F /  9.9 °C 44.9 °F /  7.2 °C 29.46 in /  997.5 hPa WSW 8.0 mph /  12.9 km/h 13.0 mph /  20.9 km/h 83 % 0.00 in /  0 mm 67 W/m2
08:30 49.8 °F /  9.9 °C 44.9 °F /  7.2 °C 29.46 in /  997.5 hPa SW 7.0 mph /  11.3 km/h 12.0 mph /  19.3 km/h 83 % 0.00 in /  0 mm 104 W/m2
08:35 49.8 °F /  9.9 °C 45.2 °F /  7.3 °C 29.46 in /  997.5 hPa SW 7.0 mph /  11.3 km/h 12.0 mph /  19.3 km/h 84 % 0.00 in /  0 mm 116 W/m2
08:40 49.8 °F /  9.9 °C 45.5 °F /  7.5 °C 29.46 in /  997.5 hPa SW 7.0 mph /  11.3 km/h 12.0 mph /  19.3 km/h 85 % 0.00 in /  0 mm 109 W/m2
08:45 49.8 °F /  9.9 °C 45.5 °F /  7.5 °C 29.46 in /  997.5 hPa SW 7.0 mph /  11.3 km/h 12.0 mph /  19.3 km/h 85 % 0.00 in /  0 mm 102 W/m2
08:50 50.0 °F /  10 °C 45.7 °F /  7.6 °C 29.46 in /  997.5 hPa SW 7.0 mph /  11.3 km/h 14.0 mph /  22.5 km/h 85 % 0.00 in /  0 mm 123 W/m2
08:55 50.0 °F /  10 °C 46.0 °F /  7.8 °C 29.46 in /  997.5 hPa SW 7.0 mph /  11.3 km/h 14.0 mph /  22.5 km/h 86 % 0.00 in /  0 mm 113 W/m2
09:00 50.2 °F /  10.1 °C 46.2 °F /  7.9 °C 29.45 in /  997.2 hPa SW 7.0 mph /  11.3 km/h 11.0 mph /  17.7 km/h 86 % 0.00 in /  0 mm 90 W/m2
09:05 50.2 °F /  10.1 °C 46.2 °F /  7.9 °C 29.45 in /  997.2 hPa WSW 6.0 mph /  9.7 km/h 10.0 mph /  16.1 km/h 86 % 0.00 in /  0 mm 107 W/m2
09:10 50.4 °F /  10.2 °C 46.6 °F /  8.1 °C 29.45 in /  997.2 hPa WSW 6.0 mph /  9.7 km/h 10.0 mph /  16.1 km/h 87 % 0.00 in /  0 mm 109 W/m2
09:15 50.4 °F /  10.2 °C 46.6 °F /  8.1 °C 29.45 in /  997.2 hPa WSW 7.0 mph /  11.3 km/h 16.0 mph /  25.7 km/h 87 % 0.00 in /  0 mm 105 W/m2
09:20 50.4 °F /  10.2 °C 46.6 °F /  8.1 °C 29.45 in /  997.2 hPa West 7.0 mph /  11.3 km/h 16.0 mph /  25.7 km/h 87 % 0.00 in /  0 mm 97 W/m2
09:25 50.4 °F /  10.2 °C 46.6 °F /  8.1 °C 29.45 in /  997.2 hPa West 8.0 mph /  12.9 km/h 13.0 mph /  20.9 km/h 87 % 0.00 in /  0 mm 107 W/m2
09:30 50.4 °F /  10.2 °C 46.6 °F /  8.1 °C 29.45 in /  997.2 hPa West 8.0 mph /  12.9 km/h 15.0 mph /  24.1 km/h 87 % 0.00 in /  0 mm 86 W/m2
09:35 50.4 °F /  10.2 °C 46.3 °F /  7.9 °C 29.45 in /  997.2 hPa West 9.0 mph /  14.5 km/h 15.0 mph /  24.1 km/h 86 % 0.00 in /  0 mm 72 W/m2
09:40 50.2 °F /  10.1 °C 46.2 °F /  7.9 °C 29.45 in /  997.2 hPa West 10.0 mph /  16.1 km/h 15.0 mph /  24.1 km/h 86 % 0.00 in /  0 mm 63 W/m2
09:45 50.2 °F /  10.1 °C 46.2 °F /  7.9 °C 29.45 in /  997.2 hPa WSW 10.0 mph /  16.1 km/h 15.0 mph /  24.1 km/h 86 % 0.00 in /  0 mm 56 W/m2
09:50 50.0 °F /  10 °C 46.0 °F /  7.8 °C 29.45 in /  997.2 hPa West 9.0 mph /  14.5 km/h 14.0 mph /  22.5 km/h 86 % 0.00 in /  0 mm 58 W/m2
09:55 49.8 °F /  9.9 °C 46.1 °F /  7.8 °C 29.45 in /  997.2 hPa West 10.0 mph /  16.1 km/h 16.0 mph /  25.7 km/h 87 % 0.00 in /  0 mm 53 W/m2
10:00 49.6 °F /  9.8 °C 45.9 °F /  7.7 °C 29.45 in /  997.2 hPa West 10.0 mph /  16.1 km/h 16.0 mph /  25.7 km/h 87 % 0.00 in /  0 mm 54 W/m2
10:05 49.3 °F /  9.6 °C 45.3 °F /  7.4 °C 29.45 in /  997.2 hPa WNW 11.0 mph /  17.7 km/h 23.0 mph /  37 km/h 86 % 0.01 in /  0.25 mm 72 W/m2
10:10 48.9 °F /  9.4 °C 45.2 °F /  7.3 °C 29.45 in /  997.2 hPa WNW 10.0 mph /  16.1 km/h 23.0 mph /  37 km/h 87 % 0.01 in /  0.25 mm 113 W/m2
10:15 48.9 °F /  9.4 °C 45.2 °F /  7.3 °C 29.45 in /  997.2 hPa WNW 10.0 mph /  16.1 km/h 21.0 mph /  33.8 km/h 87 % 0.01 in /  0.25 mm 158 W/m2
10:20 48.7 °F /  9.3 °C 45.0 °F /  7.2 °C 29.45 in /  997.2 hPa WNW 11.0 mph /  17.7 km/h 21.0 mph /  33.8 km/h 87 % 0.01 in /  0.25 mm 109 W/m2
10:25 48.6 °F /  9.2 °C 44.9 °F /  7.2 °C 29.45 in /  997.2 hPa WNW 12.0 mph /  19.3 km/h 20.0 mph /  32.2 km/h 87 % 0.01 in /  0.25 mm 91 W/m2
10:30 48.4 °F /  9.1 °C 44.4 °F /  6.9 °C 29.45 in /  997.2 hPa West 11.0 mph /  17.7 km/h 20.0 mph /  32.2 km/h 86 % 0.01 in /  0.25 mm 90 W/m2
10:35 48.2 °F /  9 °C 44.2 °F /  6.8 °C 29.45 in /  997.2 hPa West 11.0 mph /  17.7 km/h 19.0 mph /  30.6 km/h 86 % 0.01 in /  0.25 mm 107 W/m2
10:40 48.0 °F /  8.9 °C 44.0 °F /  6.7 °C 29.45 in /  997.2 hPa West 11.0 mph /  17.7 km/h 20.0 mph /  32.2 km/h 86 % 0.01 in /  0.25 mm 137 W/m2
10:45 48.0 °F /  8.9 °C 44.0 °F /  6.7 °C 29.45 in /  997.2 hPa West 12.0 mph /  19.3 km/h 22.0 mph /  35.4 km/h 86 % 0.02 in /  0.51 mm 188 W/m2
10:50 48.0 °F /  8.9 °C 44.3 °F /  6.8 °C 29.45 in /  997.2 hPa West 11.0 mph /  17.7 km/h 22.0 mph /  35.4 km/h 87 % 0.02 in /  0.51 mm 236 W/m2
10:55 48.2 °F /  9 °C 44.5 °F /  6.9 °C 29.45 in /  997.2 hPa West 11.0 mph /  17.7 km/h 18.0 mph /  29 km/h 87 % 0.02 in /  0.51 mm 207 W/m2
11:00 48.4 °F /  9.1 °C 44.7 °F /  7.1 °C 29.45 in /  997.2 hPa West 12.0 mph /  19.3 km/h 23.0 mph /  37 km/h 87 % 0.02 in /  0.51 mm 158 W/m2
11:05 48.4 °F /  9.1 °C 44.4 °F /  6.9 °C 29.45 in /  997.2 hPa West 12.0 mph /  19.3 km/h 23.0 mph /  37 km/h 86 % 0.01 in /  0.25 mm 123 W/m2
11:10 48.4 °F /  9.1 °C 44.4 °F /  6.9 °C 29.46 in /  997.5 hPa West 12.0 mph /  19.3 km/h 21.0 mph /  33.8 km/h 86 % 0.01 in /  0.25 mm 97 W/m2
11:15 48.4 °F /  9.1 °C 44.4 °F /  6.9 °C 29.46 in /  997.5 hPa West 11.0 mph /  17.7 km/h 20.0 mph /  32.2 km/h 86 % 0.01 in /  0.25 mm 91 W/m2
11:20 48.2 °F /  9 °C 44.2 °F /  6.8 °C 29.46 in /  997.5 hPa West 11.0 mph /  17.7 km/h 22.0 mph /  35.4 km/h 86 % 0.01 in /  0.25 mm 98 W/m2
11:25 48.0 °F /  8.9 °C 44.0 °F /  6.7 °C 29.46 in /  997.5 hPa West 12.0 mph /  19.3 km/h 22.0 mph /  35.4 km/h 86 % 0.01 in /  0.25 mm 60 W/m2
11:30 48.0 °F /  8.9 °C 44.0 °F /  6.7 °C 29.46 in /  997.5 hPa West 10.0 mph /  16.1 km/h 16.0 mph /  25.7 km/h 86 % 0.01 in /  0.25 mm 58 W/m2
11:35 47.8 °F /  8.8 °C 44.2 °F /  6.8 °C 29.46 in /  997.5 hPa West 11.0 mph /  17.7 km/h 21.0 mph /  33.8 km/h 87 % 0.01 in /  0.25 mm 70 W/m2
11:40 47.5 °F /  8.6 °C 43.5 °F /  6.4 °C 29.45 in /  997.2 hPa West 13.0 mph /  20.9 km/h 23.0 mph /  37 km/h 86 % 0.01 in /  0.25 mm 84 W/m2
11:45 47.3 °F /  8.5 °C 43.3 °F /  6.3 °C 29.45 in /  997.2 hPa West 13.0 mph /  20.9 km/h 23.0 mph /  37 km/h 86 % 0.00 in /  0 mm 111 W/m2
11:50 47.3 °F /  8.5 °C 43.6 °F /  6.4 °C 29.46 in /  997.5 hPa West 11.0 mph /  17.7 km/h 19.0 mph /  30.6 km/h 87 % 0.01 in /  0.25 mm 114 W/m2
11:55 47.1 °F /  8.4 °C 43.4 °F /  6.3 °C 29.46 in /  997.5 hPa West 10.0 mph /  16.1 km/h 18.0 mph /  29 km/h 87 % 0.01 in /  0.25 mm 127 W/m2
12:00 47.1 °F /  8.4 °C 43.7 °F /  6.5 °C 29.46 in /  997.5 hPa West 10.0 mph /  16.1 km/h 18.0 mph /  29 km/h 88 % 0.01 in /  0.25 mm 160 W/m2
12:05 47.1 °F /  8.4 °C 43.7 °F /  6.5 °C 29.46 in /  997.5 hPa West 11.0 mph /  17.7 km/h 22.0 mph /  35.4 km/h 88 % 0.01 in /  0.25 mm 169 W/m2
12:10 47.3 °F /  8.5 °C 43.9 °F /  6.6 °C 29.46 in /  997.5 hPa West 12.0 mph /  19.3 km/h 22.0 mph /  35.4 km/h 88 % 0.01 in /  0.25 mm 169 W/m2
12:15 47.3 °F /  8.5 °C 43.9 °F /  6.6 °C 29.46 in /  997.5 hPa West 12.0 mph /  19.3 km/h 20.0 mph /  32.2 km/h 88 % 0.01 in /  0.25 mm 162 W/m2
12:20 47.5 °F /  8.6 °C 43.8 °F /  6.6 °C 29.46 in /  997.5 hPa West 10.0 mph /  16.1 km/h 20.0 mph /  32.2 km/h 87 % 0.01 in /  0.25 mm 132 W/m2
12:25 47.5 °F /  8.6 °C 43.8 °F /  6.6 °C 29.45 in /  997.2 hPa West 9.0 mph /  14.5 km/h 16.0 mph /  25.7 km/h 87 % 0.01 in /  0.25 mm 127 W/m2
12:30 47.3 °F /  8.5 °C 43.3 °F /  6.3 °C 29.45 in /  997.2 hPa West 9.0 mph /  14.5 km/h 15.0 mph /  24.1 km/h 86 % 0.01 in /  0.25 mm 134 W/m2
12:35 47.3 °F /  8.5 °C 43.3 °F /  6.3 °C 29.45 in /  997.2 hPa West 9.0 mph /  14.5 km/h 14.0 mph /  22.5 km/h 86 % 0.01 in /  0.25 mm 162 W/m2
12:40 47.5 °F /  8.6 °C 43.5 °F /  6.4 °C 29.45 in /  997.2 hPa West 10.0 mph /  16.1 km/h 16.0 mph /  25.7 km/h 86 % 0.01 in /  0.25 mm 165 W/m2
12:45 47.7 °F /  8.7 °C 43.7 °F /  6.5 °C 29.45 in /  997.2 hPa West 11.0 mph /  17.7 km/h 16.0 mph /  25.7 km/h 86 % 0.00 in /  0 mm 176 W/m2
12:50 47.8 °F /  8.8 °C 43.9 °F /  6.6 °C 29.45 in /  997.2 hPa West 11.0 mph /  17.7 km/h 16.0 mph /  25.7 km/h 86 % 0.00 in /  0 mm 199 W/m2
12:55 48.0 °F /  8.9 °C 44.0 °F /  6.7 °C 29.45 in /  997.2 hPa West 11.0 mph /  17.7 km/h 19.0 mph /  30.6 km/h 86 % 0.00 in /  0 mm 76 W/m2
13:00 48.0 °F /  8.9 °C 44.3 °F /  6.8 °C 29.46 in /  997.5 hPa West 13.0 mph /  20.9 km/h 22.0 mph /  35.4 km/h 87 % 0.00 in /  0 mm 42 W/m2
13:05 47.7 °F /  8.7 °C 44.0 °F /  6.7 °C 29.46 in /  997.5 hPa West 14.0 mph /  22.5 km/h 22.0 mph /  35.4 km/h 87 % 0.01 in /  0.25 mm 151 W/m2
13:10 47.5 °F /  8.6 °C 44.1 °F /  6.7 °C 29.45 in /  997.2 hPa WNW 12.0 mph /  19.3 km/h 21.0 mph /  33.8 km/h 88 % 0.01 in /  0.25 mm 236 W/m2
13:15 47.1 °F /  8.4 °C 43.4 °F /  6.3 °C 29.46 in /  997.5 hPa West 11.0 mph /  17.7 km/h 21.0 mph /  33.8 km/h 87 % 0.01 in /  0.25 mm 183 W/m2
13:20 46.9 °F /  8.3 °C 43.3 °F /  6.3 °C 29.46 in /  997.5 hPa West 12.0 mph /  19.3 km/h 23.0 mph /  37 km/h 87 % 0.01 in /  0.25 mm 200 W/m2
13:25 46.9 °F /  8.3 °C 43.0 °F /  6.1 °C 29.46 in /  997.5 hPa West 13.0 mph /  20.9 km/h 23.0 mph /  37 km/h 86 % 0.01 in /  0.25 mm 206 W/m2
13:30 47.1 °F /  8.4 °C 43.1 °F /  6.2 °C 29.46 in /  997.5 hPa West 13.0 mph /  20.9 km/h 21.0 mph /  33.8 km/h 86 % 0.01 in /  0.25 mm 318 W/m2
13:35 47.5 °F /  8.6 °C 43.2 °F /  6.2 °C 29.46 in /  997.5 hPa West 13.0 mph /  20.9 km/h 28.0 mph /  45.1 km/h 85 % 0.01 in /  0.25 mm 338 W/m2
13:41 47.7 °F /  8.7 °C 43.1 °F /  6.2 °C 29.46 in /  997.5 hPa West 13.0 mph /  20.9 km/h 28.0 mph /  45.1 km/h 84 % 0.01 in /  0.25 mm 271 W/m2
13:45 47.8 °F /  8.8 °C 42.9 °F /  6.1 °C 29.46 in /  997.5 hPa West 13.0 mph /  20.9 km/h 22.0 mph /  35.4 km/h 83 % 0.01 in /  0.25 mm 297 W/m2
13:50 48.2 °F /  9 °C 43.0 °F /  6.1 °C 29.46 in /  997.5 hPa West 14.0 mph /  22.5 km/h 25.0 mph /  40.2 km/h 82 % 0.01 in /  0.25 mm 547 W/m2
13:56 48.4 °F /  9.1 °C 42.2 °F /  5.7 °C 29.47 in /  997.9 hPa West 17.0 mph /  27.4 km/h 27.0 mph /  43.5 km/h 79 % 0.01 in /  0.25 mm 332 W/m2
14:01 48.6 °F /  9.2 °C 42.0 °F /  5.6 °C 29.47 in /  997.9 hPa West 18.0 mph /  29 km/h 27.0 mph /  43.5 km/h 78 % 0.01 in /  0.25 mm 657 W/m2
14:06 48.9 °F /  9.4 °C 42.0 °F /  5.6 °C 29.47 in /  997.9 hPa West 17.0 mph /  27.4 km/h 30.0 mph /  48.3 km/h 77 % 0.00 in /  0 mm 598 W/m2
14:16 49.8 °F /  9.9 °C 41.9 °F /  5.5 °C 29.48 in /  998.2 hPa WNW 15.0 mph /  24.1 km/h 26.0 mph /  41.8 km/h 74 % 0.00 in /  0 mm 230 W/m2
14:21 49.6 °F /  9.8 °C 41.7 °F /  5.4 °C 29.47 in /  997.9 hPa West 14.0 mph /  22.5 km/h 24.0 mph /  38.6 km/h 74 % 0.00 in /  0 mm 610 W/m2
14:26 49.8 °F /  9.9 °C 41.5 °F /  5.3 °C 29.47 in /  997.9 hPa West 14.0 mph /  22.5 km/h 23.0 mph /  37 km/h 73 % 0.00 in /  0 mm 543 W/m2
14:31 50.0 °F /  10 °C 41.7 °F /  5.4 °C 29.47 in /  997.9 hPa West 14.0 mph /  22.5 km/h 23.0 mph /  37 km/h 73 % 0.00 in /  0 mm 543 W/m2
14:36 50.4 °F /  10.2 °C 41.3 °F /  5.2 °C 29.47 in /  997.9 hPa West 14.0 mph /  22.5 km/h 25.0 mph /  40.2 km/h 71 % 0.00 in /  0 mm 527 W/m2
14:41 50.7 °F /  10.4 °C 40.5 °F /  4.7 °C 29.47 in /  997.9 hPa West 14.0 mph /  22.5 km/h 25.0 mph /  40.2 km/h 68 % 0.00 in /  0 mm 534 W/m2
14:46 50.7 °F /  10.4 °C 39.8 °F /  4.3 °C 29.47 in /  997.9 hPa WNW 16.0 mph /  25.7 km/h 29.0 mph /  46.7 km/h 66 % 0.00 in /  0 mm 485 W/m2
14:51 50.7 °F /  10.4 °C 39.8 °F /  4.3 °C 29.47 in /  997.9 hPa West 17.0 mph /  27.4 km/h 29.0 mph /  46.7 km/h 66 % 0.00 in /  0 mm 480 W/m2
14:56 50.7 °F /  10.4 °C 39.8 °F /  4.3 °C 29.47 in /  997.9 hPa West 14.0 mph /  22.5 km/h 25.0 mph /  40.2 km/h 66 % 0.00 in /  0 mm 475 W/m2
15:01 50.7 °F /  10.4 °C 39.8 °F /  4.3 °C 29.47 in /  997.9 hPa West 14.0 mph /  22.5 km/h 25.0 mph /  40.2 km/h 66 % 0.00 in /  0 mm 424 W/m2
15:06 50.7 °F /  10.4 °C 39.8 °F /  4.3 °C 29.46 in /  997.5 hPa WNW 15.0 mph /  24.1 km/h 23.0 mph /  37 km/h 66 % 0.00 in /  0 mm 415 W/m2
15:11 50.5 °F /  10.3 °C 40.0 °F /  4.4 °C 29.47 in /  997.9 hPa WNW 14.0 mph /  22.5 km/h 23.0 mph /  37 km/h 67 % 0.00 in /  0 mm 139 W/m2
15:12 50.5 °F /  10.3 °C 40.0 °F /  4.4 °C 29.47 in /  997.9 hPa WNW 14.0 mph /  22.5 km/h 23.0 mph /  37 km/h 67 % 0.00 in /  0 mm 540 W/m2
15:17 50.4 °F /  10.2 °C 39.8 °F /  4.3 °C 29.47 in /  997.9 hPa West 15.0 mph /  24.1 km/h 26.0 mph /  41.8 km/h 67 % 0.00 in /  0 mm 455 W/m2
15:22 50.2 °F /  10.1 °C 38.9 °F /  3.8 °C 29.47 in /  997.9 hPa West 17.0 mph /  27.4 km/h 27.0 mph /  43.5 km/h 65 % 0.00 in /  0 mm 427 W/m2
15:27 50.4 °F /  10.2 °C 37.4 °F /  3 °C 29.47 in /  997.9 hPa West 17.0 mph /  27.4 km/h 27.0 mph /  43.5 km/h 61 % 0.00 in /  0 mm 418 W/m2
15:32 50.4 °F /  10.2 °C 37.8 °F /  3.2 °C 29.48 in /  998.2 hPa WNW 16.0 mph /  25.7 km/h 27.0 mph /  43.5 km/h 62 % 0.00 in /  0 mm 385 W/m2
15:42 50.4 °F /  10.2 °C 36.6 °F /  2.6 °C 29.48 in /  998.2 hPa West 18.0 mph /  29 km/h 32.0 mph /  51.5 km/h 59 % 0.00 in /  0 mm 357 W/m2
15:47 50.4 °F /  10.2 °C 36.1 °F /  2.3 °C 29.48 in /  998.2 hPa West 17.0 mph /  27.4 km/h 32.0 mph /  51.5 km/h 58 % 0.00 in /  0 mm 350 W/m2
15:52 50.2 °F /  10.1 °C 36.0 °F /  2.2 °C 29.48 in /  998.2 hPa West 17.0 mph /  27.4 km/h 30.0 mph /  48.3 km/h 58 % 0.00 in /  0 mm 336 W/m2
15:57 50.2 °F /  10.1 °C 36.0 °F /  2.2 °C 29.48 in /  998.2 hPa West 17.0 mph /  27.4 km/h 29.0 mph /  46.7 km/h 58 % 0.00 in /  0 mm 318 W/m2
16:02 50.2 °F /  10.1 °C 36.0 °F /  2.2 °C 29.48 in /  998.2 hPa West 16.0 mph /  25.7 km/h 29.0 mph /  46.7 km/h 58 % 0.00 in /  0 mm 304 W/m2
16:07 49.8 °F /  9.9 °C 35.2 °F /  1.8 °C 29.48 in /  998.2 hPa West 17.0 mph /  27.4 km/h 28.0 mph /  45.1 km/h 57 % 0.00 in /  0 mm 292 W/m2
16:12 49.8 °F /  9.9 °C 35.2 °F /  1.8 °C 29.48 in /  998.2 hPa West 17.0 mph /  27.4 km/h 28.0 mph /  45.1 km/h 57 % 0.00 in /  0 mm 274 W/m2
16:17 49.8 °F /  9.9 °C 35.6 °F /  2 °C 29.48 in /  998.2 hPa West 16.0 mph /  25.7 km/h 28.0 mph /  45.1 km/h 58 % 0.00 in /  0 mm 262 W/m2
16:22 49.8 °F /  9.9 °C 35.6 °F /  2 °C 29.48 in /  998.2 hPa West 17.0 mph /  27.4 km/h 27.0 mph /  43.5 km/h 58 % 0.00 in /  0 mm 250 W/m2
16:27 49.8 °F /  9.9 °C 36.1 °F /  2.3 °C 29.48 in /  998.2 hPa West 17.0 mph /  27.4 km/h 27.0 mph /  43.5 km/h 59 % 0.00 in /  0 mm 234 W/m2
16:32 49.8 °F /  9.9 °C 36.5 °F /  2.5 °C 29.48 in /  998.2 hPa West 16.0 mph /  25.7 km/h 27.0 mph /  43.5 km/h 60 % 0.00 in /  0 mm 221 W/m2
16:37 49.8 °F /  9.9 °C 36.5 °F /  2.5 °C 29.48 in /  998.2 hPa West 15.0 mph /  24.1 km/h 28.0 mph /  45.1 km/h 60 % 0.00 in /  0 mm 207 W/m2
16:42 49.6 °F /  9.8 °C 36.3 °F /  2.4 °C 29.48 in /  998.2 hPa West 15.0 mph /  24.1 km/h 29.0 mph /  46.7 km/h 60 % 0.00 in /  0 mm 193 W/m2
16:47 49.5 °F /  9.7 °C 36.1 °F /  2.3 °C 29.49 in /  998.5 hPa West 16.0 mph /  25.7 km/h 29.0 mph /  46.7 km/h 60 % 0.00 in /  0 mm 176 W/m2
16:48 49.5 °F /  9.7 °C 36.1 °F /  2.3 °C 29.49 in /  998.5 hPa West 16.0 mph /  25.7 km/h 29.0 mph /  46.7 km/h 60 % 0.00 in /  0 mm 176 W/m2
16:53 49.5 °F /  9.7 °C 37.0 °F /  2.8 °C 29.49 in /  998.5 hPa West 15.0 mph /  24.1 km/h 27.0 mph /  43.5 km/h 62 % 0.00 in /  0 mm 165 W/m2
16:58 49.5 °F /  9.7 °C 37.0 °F /  2.8 °C 29.49 in /  998.5 hPa West 12.0 mph /  19.3 km/h 23.0 mph /  37 km/h 62 % 0.00 in /  0 mm 155 W/m2
17:03 49.3 °F /  9.6 °C 36.8 °F /  2.7 °C 29.49 in /  998.5 hPa West 12.0 mph /  19.3 km/h 23.0 mph /  37 km/h 62 % 0.00 in /  0 mm 146 W/m2
17:08 49.3 °F /  9.6 °C 37.2 °F /  2.9 °C 29.50 in /  998.9 hPa West 12.0 mph /  19.3 km/h 23.0 mph /  37 km/h 63 % 0.00 in /  0 mm 132 W/m2
17:13 49.1 °F /  9.5 °C 36.6 °F /  2.6 °C 29.50 in /  998.9 hPa West 12.0 mph /  19.3 km/h 21.0 mph /  33.8 km/h 62 % 0.00 in /  0 mm 114 W/m2
17:18 48.9 °F /  9.4 °C 36.5 °F /  2.5 °C 29.50 in /  998.9 hPa West 11.0 mph /  17.7 km/h 21.0 mph /  33.8 km/h 62 % 0.00 in /  0 mm 102 W/m2
17:23 48.7 °F /  9.3 °C 35.9 °F /  2.2 °C 29.50 in /  998.9 hPa West 11.0 mph /  17.7 km/h 21.0 mph /  33.8 km/h 61 % 0.00 in /  0 mm 88 W/m2
17:28 48.6 °F /  9.2 °C 35.7 °F /  2.1 °C 29.50 in /  998.9 hPa West 13.0 mph /  20.9 km/h 23.0 mph /  37 km/h 61 % 0.00 in /  0 mm 76 W/m2
17:33 48.4 °F /  9.1 °C 35.1 °F /  1.7 °C 29.50 in /  998.9 hPa West 13.0 mph /  20.9 km/h 25.0 mph /  40.2 km/h 60 % 0.00 in /  0 mm 62 W/m2
17:38 48.0 °F /  8.9 °C 35.2 °F /  1.8 °C 29.50 in /  998.9 hPa West 12.0 mph /  19.3 km/h 25.0 mph /  40.2 km/h 61 % 0.00 in /  0 mm 47 W/m2
17:43 48.0 °F /  8.9 °C 35.6 °F /  2 °C 29.50 in /  998.9 hPa West 9.0 mph /  14.5 km/h 19.0 mph /  30.6 km/h 62 % 0.00 in /  0 mm 25 W/m2
17:48 47.7 °F /  8.7 °C 35.3 °F /  1.8 °C 29.50 in /  998.9 hPa West 9.0 mph /  14.5 km/h 16.0 mph /  25.7 km/h 62 % 0.00 in /  0 mm 19 W/m2
17:53 47.7 °F /  8.7 °C 35.3 °F /  1.8 °C 29.50 in /  998.9 hPa West 10.0 mph /  16.1 km/h 16.0 mph /  25.7 km/h 62 % 0.00 in /  0 mm 14 W/m2
17:58 47.5 °F /  8.6 °C 35.5 °F /  1.9 °C 29.51 in /  999.2 hPa West 9.0 mph /  14.5 km/h 16.0 mph /  25.7 km/h 63 % 0.00 in /  0 mm 12 W/m2
18:01 47.3 °F /  8.5 °C 35.3 °F /  1.8 °C 29.51 in /  999.2 hPa West 8.0 mph /  12.9 km/h 16.0 mph /  25.7 km/h 63 % 0.00 in /  0 mm 11 W/m2
18:06 47.1 °F /  8.4 °C 35.6 °F /  2 °C 29.51 in /  999.2 hPa West 8.0 mph /  12.9 km/h 16.0 mph /  25.7 km/h 64 % 0.00 in /  0 mm 9 W/m2
18:11 46.9 °F /  8.3 °C 35.8 °F /  2.1 °C 29.50 in /  998.9 hPa West 7.0 mph /  11.3 km/h 12.0 mph /  19.3 km/h 65 % 0.00 in /  0 mm 7 W/m2
18:16 46.6 °F /  8.1 °C 35.8 °F /  2.1 °C 29.51 in /  999.2 hPa West 6.0 mph /  9.7 km/h 11.0 mph /  17.7 km/h 66 % 0.00 in /  0 mm 5 W/m2
18:21 46.6 °F /  8.1 °C 36.2 °F /  2.3 °C 29.51 in /  999.2 hPa West 4.0 mph /  6.4 km/h 8.0 mph /  12.9 km/h 67 % 0.00 in /  0 mm 0 W/m2
18:26 46.4 °F /  8 °C 36.0 °F /  2.2 °C 29.51 in /  999.2 hPa WSW 3.0 mph /  4.8 km/h 6.0 mph /  9.7 km/h 67 % 0.00 in /  0 mm 0 W/m2
18:31 46.2 °F /  7.9 °C 36.2 °F /  2.3 °C 29.51 in /  999.2 hPa WSW 2.0 mph /  3.2 km/h 6.0 mph /  9.7 km/h 68 % 0.00 in /  0 mm 0 W/m2
18:36 46.0 °F /  7.8 °C 36.1 °F /  2.3 °C 29.51 in /  999.2 hPa WSW 2.0 mph /  3.2 km/h 5.0 mph /  8 km/h 68 % 0.00 in /  0 mm 0 W/m2
18:41 45.9 °F /  7.7 °C 35.9 °F /  2.2 °C 29.52 in /  999.5 hPa WSW 1.0 mph /  1.6 km/h 5.0 mph /  8 km/h 68 % 0.00 in /  0 mm 0 W/m2
18:46 45.9 °F /  7.7 °C 36.3 °F /  2.4 °C 29.52 in /  999.5 hPa WSW 1.0 mph /  1.6 km/h 5.0 mph /  8 km/h 69 % 0.00 in /  0 mm 0 W/m2
18:51 45.9 °F /  7.7 °C 36.3 °F /  2.4 °C 29.52 in /  999.5 hPa SW 3.0 mph /  4.8 km/h 9.0 mph /  14.5 km/h 69 % 0.00 in /  0 mm 0 W/m2
18:56 45.9 °F /  7.7 °C 36.6 °F /  2.6 °C 29.52 in /  999.5 hPa SW 4.0 mph /  6.4 km/h 9.0 mph /  14.5 km/h 70 % 0.00 in /  0 mm 0 W/m2
19:01 46.0 °F /  7.8 °C 37.2 °F /  2.9 °C 29.52 in /  999.5 hPa SW 4.0 mph /  6.4 km/h 7.0 mph /  11.3 km/h 71 % 0.00 in /  0 mm 0 W/m2
19:06 46.0 °F /  7.8 °C 37.5 °F /  3.1 °C 29.52 in /  999.5 hPa WSW 3.0 mph /  4.8 km/h 6.0 mph /  9.7 km/h 72 % 0.00 in /  0 mm 0 W/m2
19:11 45.9 °F /  7.7 °C 37.3 °F /  2.9 °C 29.52 in /  999.5 hPa WSW 4.0 mph /  6.4 km/h 9.0 mph /  14.5 km/h 72 % 0.00 in /  0 mm 0 W/m2
19:16 45.9 °F /  7.7 °C 37.0 °F /  2.8 °C 29.52 in /  999.5 hPa WSW 5.0 mph /  8 km/h 12.0 mph /  19.3 km/h 71 % 0.00 in /  0 mm 0 W/m2
19:21 45.9 °F /  7.7 °C 37.7 °F /  3.2 °C 29.52 in /  999.5 hPa WSW 6.0 mph /  9.7 km/h 12.0 mph /  19.3 km/h 73 % 0.00 in /  0 mm 0 W/m2
19:26 45.7 °F /  7.6 °C 37.5 °F /  3.1 °C 29.53 in /  999.9 hPa West 7.0 mph /  11.3 km/h 12.0 mph /  19.3 km/h 73 % 0.00 in /  0 mm 0 W/m2
19:31 45.7 °F /  7.6 °C 37.9 °F /  3.3 °C 29.53 in /  999.9 hPa West 6.0 mph /  9.7 km/h 9.0 mph /  14.5 km/h 74 % 0.00 in /  0 mm 0 W/m2
19:36 45.7 °F /  7.6 °C 38.2 °F /  3.4 °C 29.53 in /  999.9 hPa West 7.0 mph /  11.3 km/h 12.0 mph /  19.3 km/h 75 % 0.00 in /  0 mm 0 W/m2
19:41 45.7 °F /  7.6 °C 38.9 °F /  3.8 °C 29.54 in /  1000.2 hPa WSW 10.0 mph /  16.1 km/h 25.0 mph /  40.2 km/h 77 % 0.00 in /  0 mm 0 W/m2
19:46 45.0 °F /  7.2 °C 38.8 °F /  3.8 °C 29.54 in /  1000.2 hPa WSW 12.0 mph /  19.3 km/h 25.0 mph /  40.2 km/h 79 % 0.00 in /  0 mm 0 W/m2
19:51 44.6 °F /  7 °C 38.8 °F /  3.8 °C 29.54 in /  1000.2 hPa WSW 11.0 mph /  17.7 km/h 24.0 mph /  38.6 km/h 80 % 0.00 in /  0 mm 0 W/m2
19:56 44.4 °F /  6.9 °C 39.0 °F /  3.9 °C 29.54 in /  1000.2 hPa WSW 11.0 mph /  17.7 km/h 19.0 mph /  30.6 km/h 81 % 0.00 in /  0 mm 0 W/m2
20:01 43.9 °F /  6.6 °C 38.4 °F /  3.6 °C 29.54 in /  1000.2 hPa SW 11.0 mph /  17.7 km/h 19.0 mph /  30.6 km/h 81 % 0.00 in /  0 mm 0 W/m2
20:06 43.3 °F /  6.3 °C 38.2 °F /  3.4 °C 29.54 in /  1000.2 hPa WSW 11.0 mph /  17.7 km/h 19.0 mph /  30.6 km/h 82 % 0.00 in /  0 mm 0 W/m2
20:11 43.0 °F /  6.1 °C 38.2 °F /  3.4 °C 29.54 in /  1000.2 hPa WSW 8.0 mph /  12.9 km/h 18.0 mph /  29 km/h 83 % 0.00 in /  0 mm 0 W/m2
20:17 42.8 °F /  6 °C 38.0 °F /  3.3 °C 29.54 in /  1000.2 hPa WSW 7.0 mph /  11.3 km/h 12.0 mph /  19.3 km/h 83 % 0.00 in /  0 mm 0 W/m2
20:22 42.6 °F /  5.9 °C 38.1 °F /  3.4 °C 29.54 in /  1000.2 hPa SW 7.0 mph /  11.3 km/h 12.0 mph /  19.3 km/h 84 % 0.00 in /  0 mm 0 W/m2
20:27 42.4 °F /  5.8 °C 37.9 °F /  3.3 °C 29.54 in /  1000.2 hPa SW 6.0 mph /  9.7 km/h 11.0 mph /  17.7 km/h 84 % 0.00 in /  0 mm 0 W/m2
20:32 42.1 °F /  5.6 °C 37.6 °F /  3.1 °C 29.54 in /  1000.2 hPa SW 5.0 mph /  8 km/h 9.0 mph /  14.5 km/h 84 % 0.00 in /  0 mm 0 W/m2
20:37 42.1 °F /  5.6 °C 37.9 °F /  3.3 °C 29.54 in /  1000.2 hPa SW 5.0 mph /  8 km/h 9.0 mph /  14.5 km/h 85 % 0.00 in /  0 mm 0 W/m2
20:42 41.7 °F /  5.4 °C 37.5 °F /  3.1 °C 29.54 in /  1000.2 hPa SW 5.0 mph /  8 km/h 8.0 mph /  12.9 km/h 85 % 0.00 in /  0 mm 0 W/m2
20:47 41.5 °F /  5.3 °C 37.7 °F /  3.2 °C 29.54 in /  1000.2 hPa WSW 4.0 mph /  6.4 km/h 8.0 mph /  12.9 km/h 86 % 0.00 in /  0 mm 0 W/m2
20:52 41.4 °F /  5.2 °C 37.5 °F /  3.1 °C 29.54 in /  1000.2 hPa WSW 4.0 mph /  6.4 km/h 8.0 mph /  12.9 km/h 86 % 0.00 in /  0 mm 0 W/m2
20:57 41.2 °F /  5.1 °C 37.3 °F /  2.9 °C 29.54 in /  1000.2 hPa WSW 6.0 mph /  9.7 km/h 12.0 mph /  19.3 km/h 86 % 0.00 in /  0 mm 0 W/m2
21:02 41.4 °F /  5.2 °C 37.8 °F /  3.2 °C 29.54 in /  1000.2 hPa WSW 8.0 mph /  12.9 km/h 12.0 mph /  19.3 km/h 87 % 0.00 in /  0 mm 0 W/m2
21:07 41.9 °F /  5.5 °C 38.3 °F /  3.5 °C 29.53 in /  999.9 hPa WSW 9.0 mph /  14.5 km/h 16.0 mph /  25.7 km/h 87 % 0.00 in /  0 mm 0 W/m2
21:12 42.3 °F /  5.7 °C 38.4 °F /  3.6 °C 29.53 in /  999.9 hPa WSW 9.0 mph /  14.5 km/h 16.0 mph /  25.7 km/h 86 % 0.00 in /  0 mm 0 W/m2
21:17 42.6 °F /  5.9 °C 38.4 °F /  3.6 °C 29.53 in /  999.9 hPa SW 10.0 mph /  16.1 km/h 16.0 mph /  25.7 km/h 85 % 0.00 in /  0 mm 0 W/m2
21:22 43.0 °F /  6.1 °C 38.5 °F /  3.6 °C 29.53 in /  999.9 hPa WSW 10.0 mph /  16.1 km/h 16.0 mph /  25.7 km/h 84 % 0.00 in /  0 mm 0 W/m2
21:27 43.0 °F /  6.1 °C 38.5 °F /  3.6 °C 29.53 in /  999.9 hPa WSW 11.0 mph /  17.7 km/h 19.0 mph /  30.6 km/h 84 % 0.00 in /  0 mm 0 W/m2
21:32 43.0 °F /  6.1 °C 38.5 °F /  3.6 °C 29.53 in /  999.9 hPa WSW 10.0 mph /  16.1 km/h 19.0 mph /  30.6 km/h 84 % 0.00 in /  0 mm 0 W/m2
21:37 43.2 °F /  6.2 °C 38.3 °F /  3.5 °C 29.53 in /  999.9 hPa WSW 10.0 mph /  16.1 km/h 18.0 mph /  29 km/h 83 % 0.00 in /  0 mm 0 W/m2
21:42 43.2 °F /  6.2 °C 38.3 °F /  3.5 °C 29.53 in /  999.9 hPa WSW 11.0 mph /  17.7 km/h 19.0 mph /  30.6 km/h 83 % 0.00 in /  0 mm 0 W/m2
21:52 43.3 °F /  6.3 °C 38.2 °F /  3.4 °C 29.53 in /  999.9 hPa WSW 13.0 mph /  20.9 km/h 23.0 mph /  37 km/h 82 % 0.00 in /  0 mm 0 W/m2
21:57 43.3 °F /  6.3 °C 37.9 °F /  3.3 °C 29.53 in /  999.9 hPa WSW 13.0 mph /  20.9 km/h 23.0 mph /  37 km/h 81 % 0.00 in /  0 mm 0 W/m2
22:02 43.5 °F /  6.4 °C 37.8 °F /  3.2 °C 29.53 in /  999.9 hPa WSW 13.0 mph /  20.9 km/h 22.0 mph /  35.4 km/h 80 % 0.00 in /  0 mm 0 W/m2
22:07 43.5 °F /  6.4 °C 37.8 °F /  3.2 °C 29.53 in /  999.9 hPa WSW 13.0 mph /  20.9 km/h 22.0 mph /  35.4 km/h 80 % 0.00 in /  0 mm 0 W/m2
22:12 43.3 °F /  6.3 °C 37.6 °F /  3.1 °C 29.53 in /  999.9 hPa WSW 11.0 mph /  17.7 km/h 19.0 mph /  30.6 km/h 80 % 0.00 in /  0 mm 0 W/m2
22:17 43.3 °F /  6.3 °C 37.9 °F /  3.3 °C 29.53 in /  999.9 hPa WSW 10.0 mph /  16.1 km/h 16.0 mph /  25.7 km/h 81 % 0.00 in /  0 mm 0 W/m2
22:22 43.2 °F /  6.2 °C 37.7 °F /  3.2 °C 29.52 in /  999.5 hPa WSW 10.0 mph /  16.1 km/h 16.0 mph /  25.7 km/h 81 % 0.00 in /  0 mm 0 W/m2
22:27 43.0 °F /  6.1 °C 37.5 °F /  3.1 °C 29.52 in /  999.5 hPa WSW 10.0 mph /  16.1 km/h 16.0 mph /  25.7 km/h 81 % 0.00 in /  0 mm 0 W/m2
22:32 43.0 °F /  6.1 °C 37.5 °F /  3.1 °C 29.52 in /  999.5 hPa WSW 10.0 mph /  16.1 km/h 16.0 mph /  25.7 km/h 81 % 0.00 in /  0 mm 0 W/m2
22:37 42.6 °F /  5.9 °C 37.5 °F /  3.1 °C 29.52 in /  999.5 hPa WSW 9.0 mph /  14.5 km/h 18.0 mph /  29 km/h 82 % 0.00 in /  0 mm 0 W/m2
22:42 42.6 °F /  5.9 °C 37.5 °F /  3.1 °C 29.52 in /  999.5 hPa WSW 10.0 mph /  16.1 km/h 19.0 mph /  30.6 km/h 82 % 0.00 in /  0 mm 0 W/m2
22:47 42.6 °F /  5.9 °C 37.5 °F /  3.1 °C 29.52 in /  999.5 hPa WSW 11.0 mph /  17.7 km/h 19.0 mph /  30.6 km/h 82 % 0.00 in /  0 mm 0 W/m2
22:52 42.6 °F /  5.9 °C 37.5 °F /  3.1 °C 29.52 in /  999.5 hPa WSW 11.0 mph /  17.7 km/h 20.0 mph /  32.2 km/h 82 % 0.00 in /  0 mm 0 W/m2
22:57 42.6 °F /  5.9 °C 37.5 °F /  3.1 °C 29.52 in /  999.5 hPa WSW 11.0 mph /  17.7 km/h 20.0 mph /  32.2 km/h 82 % 0.00 in /  0 mm 0 W/m2
23:02 42.4 °F /  5.8 °C 37.3 °F /  2.9 °C 29.52 in /  999.5 hPa WSW 10.0 mph /  16.1 km/h 18.0 mph /  29 km/h 82 % 0.00 in /  0 mm 0 W/m2
23:07 42.6 °F /  5.9 °C 37.5 °F /  3.1 °C 29.52 in /  999.5 hPa SW 10.0 mph /  16.1 km/h 18.0 mph /  29 km/h 82 % 0.00 in /  0 mm 0 W/m2
23:12 42.4 °F /  5.8 °C 37.3 °F /  2.9 °C 29.52 in /  999.5 hPa SW 10.0 mph /  16.1 km/h 18.0 mph /  29 km/h 82 % 0.00 in /  0 mm 0 W/m2
23:17 42.4 °F /  5.8 °C 37.6 °F /  3.1 °C 29.52 in /  999.5 hPa SW 10.0 mph /  16.1 km/h 15.0 mph /  24.1 km/h 83 % 0.00 in /  0 mm 0 W/m2
23:22 42.4 °F /  5.8 °C 37.6 °F /  3.1 °C 29.52 in /  999.5 hPa SW 11.0 mph /  17.7 km/h 22.0 mph /  35.4 km/h 83 % 0.00 in /  0 mm 0 W/m2
23:27 42.4 °F /  5.8 °C 37.9 °F /  3.3 °C 29.53 in /  999.9 hPa SW 14.0 mph /  22.5 km/h 28.0 mph /  45.1 km/h 84 % 0.00 in /  0 mm 0 W/m2
23:32 42.1 °F /  5.6 °C 37.9 °F /  3.3 °C 29.53 in /  999.9 hPa WSW 16.0 mph /  25.7 km/h 31.0 mph /  49.9 km/h 85 % 0.01 in /  0.25 mm 0 W/m2
23:37 41.5 °F /  5.3 °C 38.0 °F /  3.3 °C 29.54 in /  1000.2 hPa WSW 16.0 mph /  25.7 km/h 31.0 mph /  49.9 km/h 87 % 0.02 in /  0.51 mm 0 W/m2
23:42 41.2 °F /  5.1 °C 37.6 °F /  3.1 °C 29.54 in /  1000.2 hPa WSW 16.0 mph /  25.7 km/h 30.0 mph /  48.3 km/h 87 % 0.02 in /  0.51 mm 0 W/m2
23:47 40.8 °F /  4.9 °C 37.3 °F /  2.9 °C 29.53 in /  999.9 hPa WSW 16.0 mph /  25.7 km/h 27.0 mph /  43.5 km/h 87 % 0.02 in /  0.51 mm 0 W/m2
23:52 40.3 °F /  4.6 °C 36.7 °F /  2.6 °C 29.53 in /  999.9 hPa WSW 14.0 mph /  22.5 km/h 27.0 mph /  43.5 km/h 87 % 0.02 in /  0.51 mm 0 W/m2
23:57 39.9 °F /  4.4 °C 36.7 °F /  2.6 °C 29.53 in /  999.9 hPa WSW 12.0 mph /  19.3 km/h 22.0 mph /  35.4 km/h 88 % 0.02 in /  0.51 mm 0 W/m2
Delerius-Weather
Compliments of Weather Underground - 2.25 mb

Data updates at regular intervals.